Time;durP1;ratioP1;P1;durP2;ratioP2;P2;SDS_P1;SDS_P2;PMS_P1;PMS_P2;Temp;Humidity;BMP_temperature;BMP_pressure;BME280_temperature;BME280_humidity;BME280_pressure;Samples;Min_cycle;Max_cycle;Signal;HPM_P1;HPM_P2
2021/10/09 00:00:18;;;;;;;28.38;17.85;;;;;;;9.44;79.99;97143.47;5068730;28;20412;-74
2021/10/09 00:02:44;;;;;;;33.13;18.58;;;;;;;9.45;80.26;97136.97;5069473;28;20501;-74
2021/10/09 00:05:11;;;;;;;31.65;17.95;;;;;;;9.46;79.85;97144.03;5068840;28;20052;-75
2021/10/09 00:07:37;;;;;;;32.90;17.73;;;;;;;9.46;80.09;97141.28;5069612;28;20597;-74
2021/10/09 00:10:06;;;;;;;36.08;18.48;;;;;;;9.39;80.39;97138.91;5068610;28;20537;-74
2021/10/09 00:12:33;;;;;;;32.30;17.27;;;;;;;9.39;80.70;97129.94;5069019;28;20042;-74
2021/10/09 00:15:02;;;;;;;31.27;18.35;;;;;;;9.44;80.32;97131.81;5070026;28;20048;-74
2021/10/09 00:17:29;;;;;;;33.13;18.52;;;;;;;9.43;80.37;97135.63;5068051;28;20048;-75
2021/10/09 00:19:56;;;;;;;28.60;17.80;;;;;;;9.43;80.31;97130.19;5070035;28;20118;-74
2021/10/09 00:22:23;;;;;;;30.77;18.15;;;;;;;9.43;80.71;97131.00;5067856;28;20111;-74
2021/10/09 00:24:50;;;;;;;29.80;16.98;;;;;;;9.44;80.43;97127.16;5069740;28;20044;-74
2021/10/09 00:27:16;;;;;;;30.52;17.50;;;;;;;9.45;80.44;97119.81;5068716;28;20048;-74
2021/10/09 00:29:43;;;;;;;26.55;16.98;;;;;;;9.40;80.45;97129.69;5069244;28;20044;-74
2021/10/09 00:32:10;;;;;;;32.83;16.83;;;;;;;9.40;80.53;97126.97;5068321;28;20568;-74
2021/10/09 00:34:37;;;;;;;34.05;17.35;;;;;;;9.41;80.24;97122.34;5068467;28;20051;-74
2021/10/09 00:37:04;;;;;;;33.60;18.02;;;;;;;9.41;80.31;97122.34;5068384;28;20048;-75
2021/10/09 00:39:30;;;;;;;30.75;16.63;;;;;;;9.40;80.67;97120.72;5068000;28;20411;-74
2021/10/09 00:41:57;;;;;;;26.08;16.33;;;;;;;9.41;80.16;97122.34;5068918;28;20066;-74
2021/10/09 00:44:23;;;;;;;27.40;16.42;;;;;;;9.43;79.82;97120.13;5067590;28;20052;-74
2021/10/09 00:46:50;;;;;;;32.30;16.85;;;;;;;9.43;79.58;97114.69;5068803;28;20048;-74
2021/10/09 00:49:18;;;;;;;29.48;15.98;;;;;;;9.38;79.64;97128.34;5067619;28;20056;-75
2021/10/09 00:51:45;;;;;;;29.15;17.25;;;;;;;9.34;79.56;97121.84;5068732;28;20048;-75
2021/10/09 00:54:13;;;;;;;30.85;17.52;;;;;;;9.29;80.05;97114.59;5067934;28;20504;-74
2021/10/09 00:56:41;;;;;;;29.02;16.23;;;;;;;9.30;80.04;97120.84;5068057;28;20049;-74
2021/10/09 00:59:10;;;;;;;30.00;16.67;;;;;;;9.29;79.97;97122.75;5068043;28;20049;-73
2021/10/09 01:01:37;;;;;;;28.90;17.50;;;;;;;9.28;80.31;97123.03;5067759;28;20747;-75
2021/10/09 01:04:04;;;;;;;29.60;16.27;;;;;;;9.27;80.13;97121.41;5067775;28;20515;-74
2021/10/09 01:06:33;;;;;;;29.42;15.98;;;;;;;9.24;80.14;97122.81;5067297;28;20059;-74
2021/10/09 01:08:59;;;;;;;31.00;17.20;;;;;;;9.19;80.04;97125.59;5068694;28;20060;-74
2021/10/09 01:11:26;;;;;;;24.48;15.68;;;;;;;9.17;80.47;97119.63;5067358;28;20053;-74
2021/10/09 01:13:53;;;;;;;25.83;15.90;;;;;;;9.18;80.52;97115.81;5068492;28;20066;-75
2021/10/09 01:16:20;;;;;;;27.00;15.45;;;;;;;9.18;80.72;97117.72;5067286;28;20071;-74
2021/10/09 01:18:50;;;;;;;29.05;16.35;;;;;;;9.10;80.52;97113.75;5068187;28;20051;-75
2021/10/09 01:21:19;;;;;;;33.15;16.98;;;;;;;9.07;80.49;97117.84;5067607;28;20067;-74
2021/10/09 01:23:47;;;;;;;28.38;16.50;;;;;;;9.07;80.59;97109.69;5067879;28;20060;-74
2021/10/09 01:26:14;;;;;;;27.35;15.73;;;;;;;9.07;80.40;97112.41;5067952;28;20052;-74
2021/10/09 01:28:43;;;;;;;28.27;16.35;;;;;;;9.07;80.40;97117.03;5066950;28;20049;-74
2021/10/09 01:31:10;;;;;;;25.85;15.68;;;;;;;9.07;80.59;97112.41;5068108;28;20048;-74
2021/10/09 01:33:36;;;;;;;28.65;16.25;;;;;;;9.08;80.73;97114.03;5067220;28;20045;-74
2021/10/09 01:36:04;;;;;;;27.40;16.15;;;;;;;9.05;80.65;97120.03;5067487;28;20045;-77
2021/10/09 01:38:32;;;;;;;29.30;15.75;;;;;;;9.03;80.61;97113.25;5067380;28;20190;-73
2021/10/09 01:40:58;;;;;;;27.95;15.40;;;;;;;9.02;80.85;97111.66;5067743;28;20519;-74
2021/10/09 01:43:26;;;;;;;28.98;16.60;;;;;;;9.00;80.60;97111.94;5067136;28;20045;-76
2021/10/09 01:45:53;;;;;;;29.77;15.98;;;;;;;8.97;80.69;97115.22;5067666;28;20051;-74
2021/10/09 01:48:30;;;;;;;27.13;15.90;;;;;;;8.96;80.64;97116.34;5067576;28;20562;-76
2021/10/09 01:50:56;;;;;;;29.42;15.60;;;;;;;8.99;80.62;97110.34;5064145;28;20057;-74
2021/10/09 01:53:23;;;;;;;26.55;15.40;;;;;;;8.98;80.70;97114.16;5067746;28;20761;-75
2021/10/09 01:55:50;;;;;;;31.58;15.90;;;;;;;8.97;81.01;97109.00;5067062;28;20515;-74
2021/10/09 01:58:17;;;;;;;29.13;16.10;;;;;;;9.00;81.03;97114.66;5067063;28;20048;-74
2021/10/09 02:00:44;;;;;;;26.63;14.73;;;;;;;9.00;80.58;97106.50;5067219;28;20040;-73
2021/10/09 02:03:10;;;;;;;29.63;15.30;;;;;;;9.03;80.55;97103.22;5066842;28;20045;-73
2021/10/09 02:05:37;;;;;;;27.40;15.18;;;;;;;8.97;81.14;97101.66;5067465;28;20048;-74
2021/10/09 02:08:04;;;;;;;28.65;15.90;;;;;;;8.95;81.03;97103.84;5066894;28;20055;-73
2021/10/09 02:10:32;;;;;;;27.70;15.35;;;;;;;8.93;81.18;97100.63;5067597;28;20044;-75
2021/10/09 02:13:04;;;;;;;28.85;16.23;;;;;;;8.93;81.53;97106.06;5066746;28;20072;-74
2021/10/09 02:15:34;;;;;;;26.80;15.77;;;;;;;8.93;81.47;97102.50;5067414;28;20075;-74
2021/10/09 02:26:27;;;;;;;26.23;15.73;;;;;;;8.94;81.12;97096.81;5104905;28;20058;-75
2021/10/09 02:28:54;;;;;;;26.40;15.88;;;;;;;8.92;81.44;97103.63;5106079;28;20054;-75
2021/10/09 02:31:20;;;;;;;27.95;17.08;;;;;;;8.88;81.68;97104.22;5099902;28;20058;-75
2021/10/09 02:33:47;;;;;;;25.92;16.55;;;;;;;8.88;81.32;97108.84;5085165;28;20052;-75
2021/10/09 02:36:15;;;;;;;27.23;16.25;;;;;;;8.86;81.34;97103.66;5084281;28;20056;-75
2021/10/09 02:38:41;;;;;;;28.33;16.15;;;;;;;8.87;81.58;97108.03;5085279;28;20044;-76
2021/10/09 02:41:08;;;;;;;27.85;16.73;;;;;;;8.84;81.04;97103.16;5084425;28;20056;-75
2021/10/09 02:43:34;;;;;;;33.58;17.05;;;;;;;8.81;81.52;97105.63;5084438;28;20048;-75
2021/10/09 02:46:01;;;;;;;27.35;16.42;;;;;;;8.81;81.53;97101.00;5084891;28;20059;-75
2021/10/09 02:48:27;;;;;;;27.98;16.52;;;;;;;8.80;81.45;97102.13;5083523;28;20044;-75
2021/10/09 02:50:54;;;;;;;29.27;16.95;;;;;;;8.82;81.21;97093.66;5084986;28;20056;-75
2021/10/09 02:53:22;;;;;;;28.42;16.85;;;;;;;8.81;81.20;97100.19;5083486;28;20499;-75
2021/10/09 02:55:48;;;;;;;29.38;17.25;;;;;;;8.81;81.29;97092.88;5084483;28;20055;-75
2021/10/09 02:58:15;;;;;;;27.10;17.52;;;;;;;8.77;81.49;97091.00;5083414;28;20414;-76
2021/10/09 03:00:41;;;;;;;34.83;19.15;;;;;;;8.74;81.75;97097.84;5084123;28;20048;-75
2021/10/09 03:03:08;;;;;;;33.13;17.98;;;;;;;8.77;81.46;97091.84;5083914;28;20043;-75
2021/10/09 03:05:34;;;;;;;30.92;17.88;;;;;;;8.77;81.20;97091.00;5084211;28;20071;-75
2021/10/09 03:08:01;;;;;;;33.10;17.83;;;;;;;8.75;80.87;97087.78;5084395;28;20044;-75
2021/10/09 03:10:29;;;;;;;31.20;17.60;;;;;;;8.71;81.44;97086.72;5083543;28;20060;-75
2021/10/09 03:12:56;;;;;;;32.80;18.55;;;;;;;8.70;81.67;97090.56;5084742;28;20647;-75
2021/10/09 03:15:22;;;;;;;35.90;18.27;;;;;;;8.69;81.65;97089.75;5082746;28;20059;-75
2021/10/09 03:17:49;;;;;;;36.13;18.42;;;;;;;8.70;81.50;97095.97;5084739;28;20431;-75
2021/10/09 03:20:15;;;;;;;31.13;18.35;;;;;;;8.68;81.67;97098.19;5082639;28;20672;-75
2021/10/09 03:22:44;;;;;;;32.25;17.25;;;;;;;8.71;81.37;97087.53;5084564;28;20052;-75
2021/10/09 03:25:10;;;;;;;31.35;19.15;;;;;;;8.69;81.26;97095.19;5082983;28;20078;-76
2021/10/09 03:27:38;;;;;;;34.55;18.83;;;;;;;8.65;81.61;97091.41;5083868;28;20052;-76
2021/10/09 03:30:07;;;;;;;33.47;18.15;;;;;;;8.66;81.20;97095.75;5082691;28;20052;-76
2021/10/09 03:32:34;;;;;;;37.47;19.73;;;;;;;8.67;81.02;97093.88;5069620;28;20052;-77
2021/10/09 03:35:01;;;;;;;31.52;18.65;;;;;;;8.65;81.02;97099.56;5070344;28;20419;-75
2021/10/09 03:37:28;;;;;;;30.92;18.67;;;;;;;8.65;80.66;97096.84;5069499;28;20044;-75
2021/10/09 03:39:56;;;;;;;39.35;20.13;;;;;;;8.61;80.88;97104.78;5070006;28;20485;-75
2021/10/09 03:42:26;;;;;;;31.50;19.58;;;;;;;8.57;81.03;97098.28;5068688;28;20407;-75
2021/10/09 03:44:57;;;;;;;32.55;19.88;;;;;;;8.55;81.12;97105.09;5070000;28;20766;-76
2021/10/09 03:47:31;;;;;;;37.58;19.55;;;;;;;8.56;81.54;97099.38;5069174;28;20055;-75
2021/10/09 03:49:59;;;;;;;34.47;19.88;;;;;;;8.52;81.38;97101.06;5069692;28;20111;-75
2021/10/09 03:52:36;;;;;;;33.42;20.08;;;;;;;8.52;81.25;97106.47;5069713;28;20123;-75
2021/10/09 03:55:05;;;;;;;32.60;19.17;;;;;;;8.52;81.20;97102.97;5052281;28;20124;-75
2021/10/09 03:57:32;;;;;;;29.45;18.88;;;;;;;8.50;81.28;97103.22;5050336;28;20492;-77
2021/10/09 04:00:00;;;;;;;34.80;19.73;;;;;;;8.49;81.24;97098.91;5048428;28;20763;-75
2021/10/09 04:02:26;;;;;;;34.28;20.23;;;;;;;8.46;81.47;97109.53;5049488;28;20049;-75
2021/10/09 04:04:52;;;;;;;32.13;19.80;;;;;;;8.43;81.29;97108.19;5048781;28;20049;-75
2021/10/09 04:07:19;;;;;;;40.15;20.77;;;;;;;8.43;81.20;97110.09;5048917;28;20049;-75
2021/10/09 04:09:46;;;;;;;36.72;20.67;;;;;;;8.40;80.89;97114.16;5049037;28;20048;-75
2021/10/09 04:12:12;;;;;;;39.47;21.95;;;;;;;8.38;81.32;97110.94;5048502;28;20044;-75
2021/10/09 04:14:38;;;;;;;39.92;23.08;;;;;;;8.36;81.41;97107.72;5049039;28;20057;-75
2021/10/09 04:17:06;;;;;;;34.33;20.85;;;;;;;8.33;81.46;97105.53;5048270;28;20132;-75
2021/10/09 04:19:33;;;;;;;32.85;21.58;;;;;;;8.32;81.57;97109.34;5049356;28;20045;-75
2021/10/09 04:22:00;;;;;;;38.92;22.67;;;;;;;8.31;81.66;97105.81;5048850;28;20128;-75
2021/10/09 04:24:26;;;;;;;40.17;22.38;;;;;;;8.31;81.28;97108.53;5049852;28;20067;-75
2021/10/09 04:26:53;;;;;;;39.15;22.08;;;;;;;8.29;81.28;97109.91;5048436;28;20044;-75
2021/10/09 04:29:20;;;;;;;41.63;22.25;;;;;;;8.25;81.09;97106.97;5049065;28;20057;-76
2021/10/09 04:31:46;;;;;;;38.13;22.30;;;;;;;8.22;81.09;97109.44;5048695;28;20049;-75
2021/10/09 04:34:14;;;;;;;41.95;23.45;;;;;;;8.18;81.31;97100.22;5048876;28;20045;-75
2021/10/09 04:36:41;;;;;;;41.70;22.88;;;;;;;8.18;81.35;97105.66;5049007;28;20055;-75
2021/10/09 04:39:07;;;;;;;42.50;23.65;;;;;;;8.13;80.68;97108.41;5048314;28;20759;-75
2021/10/09 04:41:34;;;;;;;42.53;23.88;;;;;;;8.08;81.22;97118.19;5049369;28;20045;-75
2021/10/09 04:44:00;;;;;;;46.08;23.95;;;;;;;8.06;80.88;97114.97;5047262;28;20076;-76
2021/10/09 04:46:27;;;;;;;47.85;24.27;;;;;;;8.05;80.90;97115.28;5049021;28;20048;-75
2021/10/09 04:48:53;;;;;;;45.30;24.60;;;;;;;8.01;81.15;97112.31;5048321;28;20053;-75
2021/10/09 04:51:21;;;;;;;46.70;25.25;;;;;;;7.96;80.84;97117.75;5048551;28;20203;-75
2021/10/09 04:53:47;;;;;;;40.38;23.67;;;;;;;7.96;81.13;97114.25;5048082;28;20053;-75
2021/10/09 04:56:14;;;;;;;46.20;24.42;;;;;;;7.92;80.52;97116.69;5048033;28;20049;-75
2021/10/09 04:58:40;;;;;;;50.38;25.00;;;;;;;7.87;80.35;97116.75;5047995;28;20053;-75
2021/10/09 05:01:07;;;;;;;44.90;24.02;;;;;;;7.87;80.52;97116.75;5047200;28;20412;-75
2021/10/09 05:03:33;;;;;;;43.67;25.42;;;;;;;7.83;80.31;97115.69;5048364;28;20048;-75
2021/10/09 05:06:00;;;;;;;43.90;25.13;;;;;;;7.79;80.64;97120.88;5047408;28;20676;-75
2021/10/09 05:08:28;;;;;;;54.20;25.90;;;;;;;7.77;80.75;97122.22;5047977;28;20817;-75
2021/10/09 05:10:54;;;;;;;47.40;26.00;;;;;;;7.76;80.77;97126.03;5047198;28;20072;-75
2021/10/09 05:13:21;;;;;;;47.33;25.65;;;;;;;7.75;81.00;97122.50;5048236;28;20069;-75
2021/10/09 05:15:47;;;;;;;50.97;25.65;;;;;;;7.76;80.77;97120.59;5047100;28;20044;-75
2021/10/09 05:18:14;;;;;;;45.72;26.25;;;;;;;7.77;80.33;97124.94;5048198;28;20060;-74
2021/10/09 05:20:40;;;;;;;49.22;26.52;;;;;;;7.79;80.55;97125.47;5047444;28;20052;-75
2021/10/09 05:23:07;;;;;;;53.08;25.85;;;;;;;7.77;80.63;97128.44;5047633;28;20079;-75
2021/10/09 05:25:36;;;;;;;53.45;26.85;;;;;;;7.73;79.89;97119.28;5048444;28;20076;-75
2021/10/09 05:28:06;;;;;;;52.17;26.63;;;;;;;7.70;79.87;97121.75;5047629;28;20388;-74
2021/10/09 05:30:33;;;;;;;47.03;27.02;;;;;;;7.69;80.22;97125.53;5048363;28;20122;-75
2021/10/09 05:33:12;;;;;;;48.65;26.05;;;;;;;7.68;80.14;97121.22;5047427;28;20055;-76
2021/10/09 05:35:38;;;;;;;52.80;28.90;;;;;;;7.68;80.43;97126.66;5048425;28;20045;-75
2021/10/09 05:38:05;;;;;;;58.03;28.35;;;;;;;7.67;80.36;97133.13;5047307;28;20052;-75
2021/10/09 05:40:31;;;;;;;51.03;27.58;;;;;;;7.68;80.19;97129.34;5047788;28;20533;-75
2021/10/09 05:42:59;;;;;;;52.28;27.23;;;;;;;7.71;79.80;97126.06;5047568;28;20058;-75
2021/10/09 05:45:26;;;;;;;48.08;25.73;;;;;;;7.71;80.00;97134.19;5047161;28;20472;-76
2021/10/09 05:47:52;;;;;;;51.85;27.42;;;;;;;7.69;79.60;97136.38;5048041;28;20071;-75
2021/10/09 05:50:23;;;;;;;46.25;24.88;;;;;;;7.72;80.15;97135.81;5046697;28;20060;-75
2021/10/09 05:52:54;;;;;;;53.65;29.48;;;;;;;7.72;80.28;97139.34;5047633;28;20132;-75
2021/10/09 05:55:24;;;;;;;53.90;28.85;;;;;;;7.74;80.38;97139.88;5046056;28;20059;-75
2021/10/09 05:57:58;;;;;;;46.40;26.50;;;;;;;7.76;79.51;97142.31;5048217;28;20286;-75
2021/10/09 06:00:51;;;;;;;52.30;27.98;;;;;;;7.77;79.44;97138.50;5046675;28;20053;-75
2021/10/09 06:42:31;;;;;;;59.28;31.30;;;;;;;7.93;79.41;97182.59;4989809;28;20073;-73
2021/10/09 06:45:08;;;;;;;56.08;27.85;;;;;;;7.95;79.50;97188.56;5046767;28;20053;-76
2021/10/09 06:47:37;;;;;;;52.20;29.27;;;;;;;7.98;78.88;97182.56;5046833;28;20048;-75
2021/10/09 06:50:41;;;;;;;57.05;30.88;;;;;;;7.90;78.12;97186.69;5051383;28;20049;-74
2021/10/09 07:01:20;;;;;;;71.00;32.88;;;;;;;7.91;79.43;97192.91;5065941;28;20094;-75
2021/10/09 07:03:46;;;;;;;61.97;31.73;;;;;;;7.89;79.72;97195.94;5067080;28;20049;-75
2021/10/09 07:06:16;;;;;;;60.47;31.33;;;;;;;7.94;79.59;97201.31;5066840;28;20052;-75
2021/10/09 07:08:43;;;;;;;73.18;35.63;;;;;;;7.95;79.38;97199.41;5071338;28;20380;-75
2021/10/09 07:11:09;;;;;;;61.47;31.42;;;;;;;7.94;79.18;97209.47;5069601;28;20052;-75
2021/10/09 07:13:36;;;;;;;61.88;31.75;;;;;;;7.96;79.69;97211.88;5071112;28;20044;-75
2021/10/09 07:16:02;;;;;;;66.63;31.27;;;;;;;7.95;79.84;97202.94;5069917;28;20044;-75
2021/10/09 07:18:29;;;;;;;65.07;33.88;;;;;;;7.97;79.91;97214.31;5070677;28;20054;-77
2021/10/09 07:20:55;;;;;;;66.07;33.15;;;;;;;8.01;79.65;97215.38;5067026;28;20048;-75
2021/10/09 07:23:23;;;;;;;62.67;32.28;;;;;;;8.07;79.84;97219.66;5069790;28;20059;-76
2021/10/09 07:25:50;;;;;;;59.45;30.17;;;;;;;8.09;79.43;97213.97;5070483;28;20052;-75
2021/10/09 07:28:16;;;;;;;55.75;31.23;;;;;;;8.13;79.28;97209.59;5069427;28;20063;-75
2021/10/09 07:30:43;;;;;;;63.00;31.30;;;;;;;8.20;79.31;97212.00;5070481;28;20137;-75
2021/10/09 07:33:11;;;;;;;64.88;31.90;;;;;;;8.27;79.28;97209.78;5069091;28;20052;-75
2021/10/09 07:35:38;;;;;;;58.25;30.20;;;;;;;8.29;79.29;97221.16;5070716;28;20071;-75
2021/10/09 07:38:05;;;;;;;62.22;31.77;;;;;;;8.28;78.76;97224.97;5069391;28;20040;-75
2021/10/09 07:40:33;;;;;;;61.22;31.95;;;;;;;8.30;79.07;97228.19;5070228;28;20415;-75
2021/10/09 07:43:00;;;;;;;66.57;32.25;;;;;;;8.37;79.45;97228.75;5069789;28;20052;-75
2021/10/09 07:45:26;;;;;;;57.92;31.88;;;;;;;8.39;78.91;97226.53;5069643;28;20079;-75
2021/10/09 07:47:53;;;;;;;62.45;31.58;;;;;;;8.46;78.82;97227.06;5070348;28;20063;-75
2021/10/09 07:50:19;;;;;;;58.13;31.38;;;;;;;8.49;78.34;97226.47;5066005;28;20055;-76
2021/10/09 07:52:46;;;;;;;58.90;31.80;;;;;;;8.49;78.81;97234.63;5070553;28;20053;-75
2021/10/09 07:55:12;;;;;;;59.17;31.48;;;;;;;8.50;78.86;97232.72;5068799;28;20062;-75
2021/10/09 07:57:40;;;;;;;54.30;28.85;;;;;;;8.56;78.50;97228.84;5070427;28;20392;-75
2021/10/09 08:00:08;;;;;;;54.63;30.20;;;;;;;8.58;77.88;97230.22;5069019;28;20709;-75
2021/10/09 08:02:35;;;;;;;54.25;29.38;;;;;;;8.63;77.35;97241.03;5070397;28;20105;-76
2021/10/09 08:05:03;;;;;;;53.65;29.80;;;;;;;8.66;77.53;97238.84;5068917;28;20053;-74
2021/10/09 08:07:30;;;;;;;51.88;28.40;;;;;;;8.74;77.76;97240.94;5069954;28;20074;-75
2021/10/09 08:09:57;;;;;;;48.17;27.92;;;;;;;8.79;76.83;97240.91;5069501;28;20076;-75
2021/10/09 08:12:23;;;;;;;52.58;27.17;;;;;;;8.86;76.92;97246.81;5069030;28;20048;-75
2021/10/09 08:14:51;;;;;;;52.65;28.10;;;;;;;8.96;76.67;97240.47;5069303;28;20053;-75
2021/10/09 08:17:17;;;;;;;54.00;29.30;;;;;;;9.02;77.02;97236.63;5068543;28;20045;-76
2021/10/09 08:19:44;;;;;;;50.13;27.70;;;;;;;9.02;76.49;97234.72;5067366;28;20044;-75
2021/10/09 08:22:11;;;;;;;50.05;27.42;;;;;;;9.04;76.19;97242.59;5067994;28;20045;-75
2021/10/09 08:24:42;;;;;;;50.47;26.75;;;;;;;9.09;76.26;97245.25;5070060;28;20049;-75
2021/10/09 08:40:49;;;;;;;48.63;26.38;;;;;;;9.56;75.21;97258.09;5068743;28;20139;-75
2021/10/09 08:43:16;;;;;;;52.67;25.55;;;;;;;9.56;74.82;97255.38;5068397;28;20047;-75
2021/10/09 08:45:42;;;;;;;46.20;26.83;;;;;;;9.60;74.95;97261.81;5068973;28;20052;-76
2021/10/09 08:48:10;;;;;;;46.75;26.33;;;;;;;9.61;74.08;97268.09;5067934;28;20049;-76
2021/10/09 08:50:36;;;;;;;47.22;25.48;;;;;;;9.65;74.10;97261.75;5066384;28;20063;-75
2021/10/09 08:53:07;;;;;;;43.00;25.02;;;;;;;9.64;73.55;97260.16;5067846;28;20059;-74
2021/10/09 08:55:36;;;;;;;45.45;24.85;;;;;;;9.67;73.41;97256.88;5069193;28;20519;-75
2021/10/09 08:58:05;;;;;;;44.92;25.08;;;;;;;9.78;73.88;97256.75;5067567;28;20130;-75
2021/10/09 09:00:50;;;;;;;50.30;25.13;;;;;;;9.85;73.29;97258.00;5068927;28;20535;-75
2021/10/09 09:03:22;;;;;;;51.05;26.48;;;;;;;9.88;72.83;97256.63;5068204;28;20048;-76
2021/10/09 09:06:07;;;;;;;43.47;25.75;;;;;;;9.91;72.97;97256.03;5068093;28;20053;-75
2021/10/09 09:09:08;;;;;;;46.75;26.10;;;;;;;9.99;72.75;97262.75;5069119;28;20071;-75
2021/10/09 09:37:12;;;;;;;40.28;23.40;;;;;;;11.40;67.86;97230.84;5067789;28;20063;-75
2021/10/09 09:39:41;;;;;;;45.78;23.00;;;;;;;11.41;67.95;97229.72;5068358;28;20438;-75
2021/10/09 09:42:08;;;;;;;46.03;23.98;;;;;;;11.55;69.05;97233.28;5067172;28;20059;-74
2021/10/09 09:44:35;;;;;;;39.53;22.65;;;;;;;11.68;69.40;97229.72;5068170;28;20090;-75
2021/10/09 09:47:05;;;;;;;41.60;23.15;;;;;;;11.84;69.00;97233.00;5067085;28;20056;-77
2021/10/09 09:49:32;;;;;;;44.65;23.40;;;;;;;12.05;67.84;97225.19;5067817;28;20059;-75
2021/10/09 09:52:00;;;;;;;38.15;21.85;;;;;;;12.27;67.60;97233.44;5067732;28;20056;-75
2021/10/09 09:54:28;;;;;;;42.70;22.60;;;;;;;12.42;67.03;97217.81;5066874;28;20775;-75
2021/10/09 09:56:57;;;;;;;35.97;21.80;;;;;;;12.56;65.72;97218.56;5067424;28;20053;-75
2021/10/09 09:59:28;;;;;;;35.53;22.48;;;;;;;12.65;64.05;97216.72;5067524;28;20049;-76
2021/10/09 10:01:55;;;;;;;41.08;22.08;;;;;;;12.78;65.17;97225.97;5068500;28;20048;-75
2021/10/09 10:04:23;;;;;;;34.72;20.02;;;;;;;12.88;63.92;97212.06;5066382;28;20049;-76
2021/10/09 10:06:50;;;;;;;35.72;20.85;;;;;;;12.95;63.15;97215.16;5068037;28;20235;-75
2021/10/09 10:09:18;;;;;;;35.10;20.05;;;;;;;13.07;64.23;97206.38;5066531;28;20071;-76
2021/10/09 10:11:46;;;;;;;39.05;19.88;;;;;;;13.16;63.46;97204.50;5067883;28;20061;-76
2021/10/09 10:14:13;;;;;;;32.90;19.15;;;;;;;13.38;64.91;97205.63;5066299;28;20397;-76
2021/10/09 10:16:39;;;;;;;29.98;17.98;;;;;;;13.48;62.18;97210.81;5067072;28;20056;-77
2021/10/09 10:19:06;;;;;;;31.63;17.25;;;;;;;13.53;61.36;97207.94;5066565;28;20052;-75
2021/10/09 10:21:49;;;;;;;31.65;17.42;;;;;;;13.54;61.53;97215.00;5064405;28;20044;-78
2021/10/09 10:24:45;;;;;;;28.73;17.00;;;;;;;13.63;62.09;97207.66;5066876;28;20090;-75
2021/10/09 10:27:36;;;;;;;29.80;16.75;;;;;;;13.73;61.56;97201.88;5065873;28;20056;-76
2021/10/09 10:30:26;;;;;;;28.10;15.80;;;;;;;13.79;60.18;97206.09;5066715;28;20068;-76
2021/10/09 10:33:29;;;;;;;24.85;15.07;;;;;;;13.77;58.86;97207.50;5067157;28;20691;-76
2021/10/09 10:35:55;;;;;;;23.17;13.45;;;;;;;13.83;61.10;97215.28;5003587;28;20058;-75
2021/10/09 10:38:47;;;;;;;26.50;14.93;;;;;;;13.84;60.13;97219.63;5054557;28;20075;-75
2021/10/09 10:41:21;;;;;;;29.73;15.63;;;;;;;13.88;58.47;97213.50;5067813;28;20047;-75
2021/10/09 10:43:50;;;;;;;22.80;14.13;;;;;;;13.90;59.26;97211.28;5070812;28;20484;-75
2021/10/09 10:46:34;;;;;;;25.17;13.82;;;;;;;13.91;58.30;97212.88;5070726;28;20495;-76
2021/10/09 10:49:05;;;;;;;23.92;13.88;;;;;;;13.90;56.81;97211.28;5070194;28;20056;-76
2021/10/09 10:54:35;;;;;;;25.00;13.25;;;;;;;13.90;58.98;97212.06;5056216;28;20048;-76
2021/10/09 10:57:22;;;;;;;24.63;14.00;;;;;;;13.91;58.88;97201.94;5070298;28;20103;-74
2021/10/09 10:59:55;;;;;;;27.15;14.93;;;;;;;13.98;60.48;97202.25;5070940;28;20083;-76
2021/10/09 11:02:24;;;;;;;24.00;14.30;;;;;;;14.04;60.30;97195.50;5069196;28;20114;-76
2021/10/09 11:04:52;;;;;;;22.98;13.65;;;;;;;14.03;57.92;97199.38;5071070;28;20045;-76
2021/10/09 11:07:21;;;;;;;27.00;14.43;;;;;;;14.03;57.35;97193.88;5069450;28;20056;-76
2021/10/09 11:09:49;;;;;;;25.45;13.93;;;;;;;14.02;57.38;97192.28;5070598;28;20049;-76
2021/10/09 11:12:26;;;;;;;21.33;13.07;;;;;;;14.05;58.04;97191.66;5069359;28;20056;-76
2021/10/09 11:15:01;;;;;;;24.83;13.98;;;;;;;14.05;56.83;97202.59;5070253;28;20056;-76
2021/10/09 11:17:32;;;;;;;29.33;12.95;;;;;;;14.04;57.46;97196.31;5070249;28;20495;-76
2021/10/09 11:19:59;;;;;;;23.05;13.73;;;;;;;14.05;57.02;97194.38;5067245;28;20171;-76
2021/10/09 11:22:25;;;;;;;21.35;13.55;;;;;;;14.13;57.02;97193.56;5070004;28;20044;-76
2021/10/09 11:24:54;;;;;;;21.67;13.02;;;;;;;14.17;58.06;97191.00;5069583;28;20051;-76
2021/10/09 11:27:21;;;;;;;24.92;12.25;;;;;;;14.23;56.55;97193.28;5070107;28;20593;-76
2021/10/09 11:30:05;;;;;;;24.52;14.50;;;;;;;14.30;56.15;97190.88;5069691;28;20059;-76
2021/10/09 11:32:33;;;;;;;23.50;12.32;;;;;;;14.34;56.42;97186.34;5057301;28;20048;-76
2021/10/09 11:35:01;;;;;;;22.42;11.85;;;;;;;14.42;56.34;97194.91;5049963;28;20548;-76
2021/10/09 11:37:30;;;;;;;21.83;11.93;;;;;;;14.46;55.60;97184.88;5049503;28;20702;-76
2021/10/09 11:40:01;;;;;;;19.65;11.60;;;;;;;14.53;55.88;97180.59;5050551;28;20618;-76
2021/10/09 11:42:29;;;;;;;21.90;12.70;;;;;;;14.72;58.25;97182.16;5049415;28;20045;-76
2021/10/09 11:45:09;;;;;;;21.00;12.23;;;;;;;14.86;56.08;97189.09;5050342;28;20049;-77
2021/10/09 11:56:02;;;;;;;21.15;10.82;;;;;;;15.28;52.69;97183.81;5069091;28;20055;-76
2021/10/09 11:58:29;;;;;;;21.35;10.90;;;;;;;15.37;52.85;97181.84;5069749;28;20603;-76
2021/10/09 12:00:57;;;;;;;19.05;10.82;;;;;;;15.51;53.39;97186.34;5069022;28;20044;-75
2021/10/09 12:03:32;;;;;;;18.25;10.80;;;;;;;15.60;52.79;97178.84;5068985;28;20037;-76
2021/10/09 12:06:00;;;;;;;22.15;10.63;;;;;;;15.64;52.30;97183.38;5069521;28;20045;-76
2021/10/09 12:08:27;;;;;;;16.17;9.35;;;;;;;15.69;50.25;97179.66;5068576;28;20045;-76
2021/10/09 12:11:15;;;;;;;17.25;9.32;;;;;;;15.76;49.42;97179.91;5069955;28;20048;-76
2021/10/09 12:13:47;;;;;;;18.75;9.68;;;;;;;15.80;49.65;97178.13;5068788;28;20053;-76
2021/10/09 12:16:15;;;;;;;16.20;9.18;;;;;;;15.89;48.03;97173.41;5069094;28;20056;-76
2021/10/09 12:18:50;;;;;;;18.75;9.10;;;;;;;15.94;47.52;97177.91;5068822;28;20056;-76
2021/10/09 12:21:16;;;;;;;14.95;7.95;;;;;;;16.05;48.77;97167.31;5069002;28;20041;-76
2021/10/09 12:23:43;;;;;;;14.85;8.63;;;;;;;16.17;48.50;97175.63;5069452;28;20053;-75
2021/10/09 12:26:14;;;;;;;13.88;7.65;;;;;;;16.29;47.34;97172.19;5068338;28;20048;-75
2021/10/09 12:29:07;;;;;;;16.13;8.52;;;;;;;16.31;47.34;97173.44;5069344;28;20048;-75
2021/10/09 12:31:37;;;;;;;17.90;8.25;;;;;;;16.43;48.69;97164.44;5068490;28;20047;-75
2021/10/09 12:34:04;;;;;;;17.15;10.10;;;;;;;16.54;47.12;97159.34;5068830;28;20075;-76
2021/10/09 12:36:34;;;;;;;18.85;9.30;;;;;;;16.59;47.48;97159.13;5068690;28;20052;-75
2021/10/09 12:39:23;;;;;;;19.80;9.07;;;;;;;16.71;48.27;97161.97;5068716;28;20139;-76
2021/10/09 12:41:51;;;;;;;13.85;8.85;;;;;;;16.76;46.38;97167.28;5068952;28;20776;-76
2021/10/09 12:44:18;;;;;;;13.88;8.82;;;;;;;16.78;47.09;97162.22;5067688;28;20396;-75
2021/10/09 12:46:46;;;;;;;20.35;10.02;;;;;;;16.83;46.21;97156.50;5069315;28;20518;-75
2021/10/09 12:49:14;;;;;;;18.27;8.80;;;;;;;16.79;45.18;97152.81;5067635;28;20052;-74
2021/10/09 12:51:42;;;;;;;13.13;8.75;;;;;;;16.80;46.26;97159.94;5069195;28;20118;-74
2021/10/09 12:54:09;;;;;;;15.75;8.75;;;;;;;16.78;46.00;97156.72;5067612;28;20052;-77
2021/10/09 12:56:37;;;;;;;15.90;9.38;;;;;;;16.84;46.17;97155.38;5068746;28;20617;-75
2021/10/09 12:59:05;;;;;;;16.80;7.80;;;;;;;16.85;45.58;97145.97;5067701;28;20060;-74
2021/10/09 13:01:32;;;;;;;14.85;9.07;;;;;;;16.93;47.67;97155.28;5068129;28;20052;-75
2021/10/09 13:03:59;;;;;;;15.10;9.05;;;;;;;16.98;45.24;97151.53;5067529;28;20051;-74
2021/10/09 13:06:26;;;;;;;14.30;8.95;;;;;;;17.05;47.36;97149.81;5067099;28;20044;-74
2021/10/09 13:08:52;;;;;;;16.40;9.00;;;;;;;17.08;45.37;97148.34;5068706;28;20052;-75
2021/10/09 13:11:23;;;;;;;16.27;8.30;;;;;;;17.04;45.38;97150.16;5066962;28;20533;-76
2021/10/09 13:13:50;;;;;;;14.95;8.30;;;;;;;17.02;44.71;97152.41;5068909;28;20040;-76
2021/10/09 13:16:16;;;;;;;17.98;8.10;;;;;;;17.01;46.24;97148.06;5067319;28;20048;-75
2021/10/09 13:18:43;;;;;;;20.80;8.40;;;;;;;16.88;45.29;97150.78;5068451;28;20047;-75